sensor_id;sensor_type;location;lat;lon;timestamp;pressure;altitude;pressure_sealevel;temperature;humidity
42603;BME280;28233;55.748;48.752;2023-04-02T00:01:44;99327.53;;;3.93;76.95
42603;BME280;28233;55.748;48.752;2023-04-02T00:05:55;99330.69;;;4.05;76.41
42603;BME280;28233;55.748;48.752;2023-04-02T00:08:03;99330.38;;;4.12;76.39
42603;BME280;28233;55.748;48.752;2023-04-02T00:12:38;99324.09;;;4.16;75.89
42603;BME280;28233;55.748;48.752;2023-04-02T00:14:45;99326.22;;;4.19;76.24
42603;BME280;28233;55.748;48.752;2023-04-02T00:16:50;99324.84;;;4.22;76.38
42603;BME280;28233;55.748;48.752;2023-04-02T00:18:57;99329.16;;;4.28;75.89
42603;BME280;28233;55.748;48.752;2023-04-02T00:21:22;99322.88;;;4.33;75.47
42603;BME280;28233;55.748;48.752;2023-04-02T00:23:27;99321.47;;;4.35;75.27
42603;BME280;28233;55.748;48.752;2023-04-02T00:25:34;99322.22;;;4.41;75.21
42603;BME280;28233;55.748;48.752;2023-04-02T00:27:38;99310.75;;;4.44;75.41
42603;BME280;28233;55.748;48.752;2023-04-02T00:29:46;99319.94;;;4.53;74.69
42603;BME280;28233;55.748;48.752;2023-04-02T00:31:53;99314.44;;;4.58;74.64
42603;BME280;28233;55.748;48.752;2023-04-02T00:33:57;99309.78;;;4.64;74.52
42603;BME280;28233;55.748;48.752;2023-04-02T00:36:05;99309.72;;;4.69;74.07
42603;BME280;28233;55.748;48.752;2023-04-02T00:38:30;99319.75;;;4.74;73.36
42603;BME280;28233;55.748;48.752;2023-04-02T00:40:38;99312.03;;;4.81;73.45
42603;BME280;28233;55.748;48.752;2023-04-02T00:42:41;99309.78;;;4.88;73.17
42603;BME280;28233;55.748;48.752;2023-04-02T00:44:47;99318.41;;;4.95;72.76
42603;BME280;28233;55.748;48.752;2023-04-02T00:46:51;99315.94;;;4.99;72.88
42603;BME280;28233;55.748;48.752;2023-04-02T00:48:57;99323.53;;;5.02;72.84
42603;BME280;28233;55.748;48.752;2023-04-02T00:51:15;99323.47;;;5.07;72.56
42603;BME280;28233;55.748;48.752;2023-04-02T00:53:29;99319.66;;;5.08;72.72
42603;BME280;28233;55.748;48.752;2023-04-02T00:55:38;99331.81;;;5.16;72.30
42603;BME280;28233;55.748;48.752;2023-04-02T00:57:43;99333.34;;;5.22;72.41
42603;BME280;28233;55.748;48.752;2023-04-02T01:02:18;99329.47;;;5.28;72.43
42603;BME280;28233;55.748;48.752;2023-04-02T01:04:32;99324.56;;;5.30;72.57
42603;BME280;28233;55.748;48.752;2023-04-02T01:06:37;99325.34;;;5.30;72.45
42603;BME280;28233;55.748;48.752;2023-04-02T01:15:56;99326.84;;;5.42;72.54
42603;BME280;28233;55.748;48.752;2023-04-02T01:18:13;99329.06;;;5.40;72.74
42603;BME280;28233;55.748;48.752;2023-04-02T01:25:13;99325.19;;;5.46;72.89
42603;BME280;28233;55.748;48.752;2023-04-02T01:27:33;99326.78;;;5.47;72.95
42603;BME280;28233;55.748;48.752;2023-04-02T01:29:45;99326.78;;;5.47;73.38
42603;BME280;28233;55.748;48.752;2023-04-02T01:31:50;99324.88;;;5.47;73.45
42603;BME280;28233;55.748;48.752;2023-04-02T01:33:54;99331.16;;;5.48;73.20
42603;BME280;28233;55.748;48.752;2023-04-02T01:43:50;99342.84;;;5.48;73.34
42603;BME280;28233;55.748;48.752;2023-04-02T01:45:58;99354.22;;;5.56;73.14
42603;BME280;28233;55.748;48.752;2023-04-02T01:48:08;99353.91;;;5.57;73.07
42603;BME280;28233;55.748;48.752;2023-04-02T01:50:29;99353.41;;;5.55;73.31
42603;BME280;28233;55.748;48.752;2023-04-02T01:52:40;99348.44;;;5.57;73.37
42603;BME280;28233;55.748;48.752;2023-04-02T01:54:45;99343.66;;;5.49;73.43
42603;BME280;28233;55.748;48.752;2023-04-02T01:56:49;99362.44;;;5.50;73.81
42603;BME280;28233;55.748;48.752;2023-04-02T01:58:53;99353.44;;;5.50;73.82
42603;BME280;28233;55.748;48.752;2023-04-02T02:01:05;99355.88;;;5.51;73.92
42603;BME280;28233;55.748;48.752;2023-04-02T02:03:11;99360.81;;;5.49;74.19
42603;BME280;28233;55.748;48.752;2023-04-02T02:05:17;99362.44;;;5.50;74.25
42603;BME280;28233;55.748;48.752;2023-04-02T02:07:22;99367.59;;;5.52;74.25
42603;BME280;28233;55.748;48.752;2023-04-02T02:09:35;99358.63;;;5.51;74.38
42603;BME280;28233;55.748;48.752;2023-04-02T02:11:37;99359.22;;;5.48;74.07
42603;BME280;28233;55.748;48.752;2023-04-02T02:14:27;99369.00;;;5.49;74.09
42603;BME280;28233;55.748;48.752;2023-04-02T02:16:34;99371.19;;;5.47;74.38
42603;BME280;28233;55.748;48.752;2023-04-02T02:18:47;99372.31;;;5.46;74.68
42603;BME280;28233;55.748;48.752;2023-04-02T02:20:52;99372.91;;;5.43;74.79
42603;BME280;28233;55.748;48.752;2023-04-02T02:22:56;99376.19;;;5.40;74.66
42603;BME280;28233;55.748;48.752;2023-04-02T02:25:03;99379.72;;;5.41;75.03
42603;BME280;28233;55.748;48.752;2023-04-02T02:29:25;99378.38;;;5.38;75.38
42603;BME280;28233;55.748;48.752;2023-04-02T02:31:31;99379.56;;;5.32;75.52
42603;BME280;28233;55.748;48.752;2023-04-02T02:33:41;99382.56;;;5.30;75.23
42603;BME280;28233;55.748;48.752;2023-04-02T02:38:07;99383.38;;;5.31;75.60
42603;BME280;28233;55.748;48.752;2023-04-02T02:40:28;99386.94;;;5.32;75.85
42603;BME280;28233;55.748;48.752;2023-04-02T02:42:37;99399.44;;;5.33;75.64
42603;BME280;28233;55.748;48.752;2023-04-02T02:44:43;99388.81;;;5.31;75.31
42603;BME280;28233;55.748;48.752;2023-04-02T02:49:36;99402.97;;;5.33;75.81
42603;BME280;28233;55.748;48.752;2023-04-02T02:51:54;99410.06;;;5.34;75.67
42603;BME280;28233;55.748;48.752;2023-04-02T02:54:02;99402.97;;;5.33;75.48
42603;BME280;28233;55.748;48.752;2023-04-02T02:56:07;99406.81;;;5.32;75.58
42603;BME280;28233;55.748;48.752;2023-04-02T02:58:14;99415.72;;;5.38;75.53
42603;BME280;28233;55.748;48.752;2023-04-02T03:00:18;99414.34;;;5.40;75.36
42603;BME280;28233;55.748;48.752;2023-04-02T03:02:23;99403.44;;;5.40;75.47
42603;BME280;28233;55.748;48.752;2023-04-02T03:04:28;99406.97;;;5.41;75.29
42603;BME280;28233;55.748;48.752;2023-04-02T03:06:37;99410.22;;;5.43;75.46
42603;BME280;28233;55.748;48.752;2023-04-02T03:08:42;99416.44;;;5.48;75.34
42603;BME280;28233;55.748;48.752;2023-04-02T03:11:04;99409.41;;;5.42;75.32
42603;BME280;28233;55.748;48.752;2023-04-02T03:13:31;99414.78;;;5.47;75.25
42603;BME280;28233;55.748;48.752;2023-04-02T03:21:57;99416.25;;;5.40;75.59
42603;BME280;28233;55.748;48.752;2023-04-02T03:24:11;99431.53;;;5.36;75.50
42603;BME280;28233;55.748;48.752;2023-04-02T03:28:29;99418.91;;;5.21;75.90
42603;BME280;28233;55.748;48.752;2023-04-02T03:32:46;99428.22;;;5.15;76.36
42603;BME280;28233;55.748;48.752;2023-04-02T03:35:00;99425.56;;;5.09;76.65
42603;BME280;28233;55.748;48.752;2023-04-02T03:37:11;99430.78;;;5.06;76.93
42603;BME280;28233;55.748;48.752;2023-04-02T03:39:20;99427.00;;;5.02;77.15
42603;BME280;28233;55.748;48.752;2023-04-02T03:41:39;99427.31;;;4.95;77.43
42603;BME280;28233;55.748;48.752;2023-04-02T03:43:46;99430.84;;;4.96;77.46
42603;BME280;28233;55.748;48.752;2023-04-02T03:45:58;99440.13;;;4.95;77.91
42603;BME280;28233;55.748;48.752;2023-04-02T03:48:40;99426.81;;;4.93;78.15
42603;BME280;28233;55.748;48.752;2023-04-02T03:51:04;99432.56;;;4.92;77.95
42603;BME280;28233;55.748;48.752;2023-04-02T03:53:08;99434.44;;;4.91;78.40
42603;BME280;28233;55.748;48.752;2023-04-02T03:55:21;99438.28;;;4.90;78.47
42603;BME280;28233;55.748;48.752;2023-04-02T03:57:34;99438.84;;;4.87;78.70
42603;BME280;28233;55.748;48.752;2023-04-02T04:00:01;99443.72;;;4.90;79.07
42603;BME280;28233;55.748;48.752;2023-04-02T04:02:26;99444.56;;;4.85;79.00
42603;BME280;28233;55.748;48.752;2023-04-02T04:04:39;99442.44;;;4.77;78.89
42603;BME280;28233;55.748;48.752;2023-04-02T04:06:45;99442.50;;;4.72;79.48
42603;BME280;28233;55.748;48.752;2023-04-02T04:08:57;99445.78;;;4.69;79.56
42603;BME280;28233;55.748;48.752;2023-04-02T04:11:07;99447.72;;;4.69;79.41
42603;BME280;28233;55.748;48.752;2023-04-02T04:13:14;99447.72;;;4.69;79.67
42603;BME280;28233;55.748;48.752;2023-04-02T04:15:25;99456.63;;;4.74;79.89
42603;BME280;28233;55.748;48.752;2023-04-02T04:17:48;99460.16;;;4.80;79.93
42603;BME280;28233;55.748;48.752;2023-04-02T04:20:02;99459.25;;;4.90;79.94
42603;BME280;28233;55.748;48.752;2023-04-02T04:22:22;99458.34;;;4.99;79.91
42603;BME280;28233;55.748;48.752;2023-04-02T04:24:35;99448.72;;;5.07;79.93
42603;BME280;28233;55.748;48.752;2023-04-02T04:29:12;99459.09;;;5.34;79.11
42603;BME280;28233;55.748;48.752;2023-04-02T04:31:22;99470.41;;;5.46;78.70
42603;BME280;28233;55.748;48.752;2023-04-02T04:33:39;99465.34;;;5.59;78.23
42603;BME280;28233;55.748;48.752;2023-04-02T04:35:45;99467.41;;;5.72;78.11
42603;BME280;28233;55.748;48.752;2023-04-02T04:40:15;99480.69;;;6.03;77.29
42603;BME280;28233;55.748;48.752;2023-04-02T04:42:26;99468.81;;;6.12;76.79
42603;BME280;28233;55.748;48.752;2023-04-02T04:44:44;99473.78;;;6.29;76.04
42603;BME280;28233;55.748;48.752;2023-04-02T04:47:02;99480.34;;;6.47;76.54
42603;BME280;28233;55.748;48.752;2023-04-02T04:49:13;99480.19;;;6.57;75.64
42603;BME280;28233;55.748;48.752;2023-04-02T04:51:23;99485.28;;;6.64;75.36
42603;BME280;28233;55.748;48.752;2023-04-02T04:53:28;99495.03;;;6.70;75.20
42603;BME280;28233;55.748;48.752;2023-04-02T04:55:44;99488.34;;;6.76;74.42
42603;BME280;28233;55.748;48.752;2023-04-02T04:57:47;99486.38;;;6.82;74.96
42603;BME280;28233;55.748;48.752;2023-04-02T04:59:58;99492.28;;;6.89;74.49
42603;BME280;28233;55.748;48.752;2023-04-02T05:02:23;99495.72;;;6.95;74.01
42603;BME280;28233;55.748;48.752;2023-04-02T05:04:33;99494.91;;;6.94;73.85
42603;BME280;28233;55.748;48.752;2023-04-02T05:06:43;99502.78;;;6.96;73.59
42603;BME280;28233;55.748;48.752;2023-04-02T05:08:51;99504.34;;;7.02;73.32
42603;BME280;28233;55.748;48.752;2023-04-02T05:11:00;99502.13;;;7.04;73.28
42603;BME280;28233;55.748;48.752;2023-04-02T05:13:17;99490.50;;;7.12;72.39
42603;BME280;28233;55.748;48.752;2023-04-02T05:15:29;99493.16;;;7.17;73.08
42603;BME280;28233;55.748;48.752;2023-04-02T05:17:41;99492.28;;;7.22;72.09
42603;BME280;28233;55.748;48.752;2023-04-02T05:19:59;99493.34;;;7.21;72.20
42603;BME280;28233;55.748;48.752;2023-04-02T05:22:35;99495.63;;;7.33;71.80
42603;BME280;28233;55.748;48.752;2023-04-02T05:24:54;99498.56;;;7.36;72.33
42603;BME280;28233;55.748;48.752;2023-04-02T05:27:03;99500.19;;;7.37;71.80
42603;BME280;28233;55.748;48.752;2023-04-02T05:29:16;99499.28;;;7.42;71.55
42603;BME280;28233;55.748;48.752;2023-04-02T05:33:34;99499.97;;;7.48;71.08
42603;BME280;28233;55.748;48.752;2023-04-02T05:35:44;99487.56;;;7.55;70.34
42603;BME280;28233;55.748;48.752;2023-04-02T05:37:48;99497.28;;;7.61;69.77
42603;BME280;28233;55.748;48.752;2023-04-02T05:39:57;99493.34;;;7.68;70.35
42603;BME280;28233;55.748;48.752;2023-04-02T05:42:06;99497.78;;;7.77;70.27
42603;BME280;28233;55.748;48.752;2023-04-02T05:44:25;99498.41;;;7.88;69.49
42603;BME280;28233;55.748;48.752;2023-04-02T05:46:34;99502.53;;;7.99;69.32
42603;BME280;28233;55.748;48.752;2023-04-02T05:48:40;99506.81;;;8.05;69.38
42603;BME280;28233;55.748;48.752;2023-04-02T05:50:49;99507.72;;;8.15;68.72
42603;BME280;28233;55.748;48.752;2023-04-02T05:53:16;99505.19;;;8.18;68.10
42603;BME280;28233;55.748;48.752;2023-04-02T05:55:47;99512.44;;;8.23;68.11
42603;BME280;28233;55.748;48.752;2023-04-02T05:57:49;99511.66;;;8.22;67.79
42603;BME280;28233;55.748;48.752;2023-04-02T06:00:17;99510.94;;;8.31;67.84
42603;BME280;28233;55.748;48.752;2023-04-02T06:02:35;99511.13;;;8.34;67.38
42603;BME280;28233;55.748;48.752;2023-04-02T06:05:02;99515.69;;;8.39;67.67
42603;BME280;28233;55.748;48.752;2023-04-02T06:07:12;99521.28;;;8.48;67.87
42603;BME280;28233;55.748;48.752;2023-04-02T06:09:32;99523.59;;;8.54;67.29
42603;BME280;28233;55.748;48.752;2023-04-02T06:11:45;99522.16;;;8.57;67.32
42603;BME280;28233;55.748;48.752;2023-04-02T06:13:50;99521.53;;;8.60;67.04
42603;BME280;28233;55.748;48.752;2023-04-02T06:15:53;99514.53;;;8.67;66.84
42603;BME280;28233;55.748;48.752;2023-04-02T06:20:13;99520.19;;;8.71;67.26
42603;BME280;28233;55.748;48.752;2023-04-02T06:22:36;99525.56;;;8.76;67.06
42603;BME280;28233;55.748;48.752;2023-04-02T06:24:42;99516.25;;;8.77;66.81
42603;BME280;28233;55.748;48.752;2023-04-02T06:26:52;99520.47;;;8.83;65.99
42603;BME280;28233;55.748;48.752;2023-04-02T06:29:36;99521.47;;;8.87;66.15
42603;BME280;28233;55.748;48.752;2023-04-02T06:33:38;99529.25;;;8.94;66.53
42603;BME280;28233;55.748;48.752;2023-04-02T06:35:42;99521.53;;;8.96;66.25
42603;BME280;28233;55.748;48.752;2023-04-02T06:37:51;99527.91;;;9.05;66.09
42603;BME280;28233;55.748;48.752;2023-04-02T06:39:56;99532.31;;;9.15;65.97
42603;BME280;28233;55.748;48.752;2023-04-02T06:42:04;99524.75;;;9.21;65.72
42603;BME280;28233;55.748;48.752;2023-04-02T06:44:17;99532.34;;;9.24;65.59
42603;BME280;28233;55.748;48.752;2023-04-02T06:46:31;99535.66;;;9.35;64.95
42603;BME280;28233;55.748;48.752;2023-04-02T06:48:38;99526.66;;;9.43;65.00
42603;BME280;28233;55.748;48.752;2023-04-02T06:50:51;99521.88;;;9.48;64.41
42603;BME280;28233;55.748;48.752;2023-04-02T06:52:59;99533.84;;;9.52;64.30
42603;BME280;28233;55.748;48.752;2023-04-02T06:57:22;99535.50;;;9.62;64.00
42603;BME280;28233;55.748;48.752;2023-04-02T06:59:25;99529.06;;;9.67;63.56
42603;BME280;28233;55.748;48.752;2023-04-02T07:01:58;99534.59;;;9.76;63.68
42603;BME280;28233;55.748;48.752;2023-04-02T07:04:11;99531.72;;;9.81;63.80
42603;BME280;28233;55.748;48.752;2023-04-02T07:06:16;99531.09;;;9.84;63.48
42603;BME280;28233;55.748;48.752;2023-04-02T07:08:20;99529.78;;;9.90;62.96
42603;BME280;28233;55.748;48.752;2023-04-02T07:10:23;99528.53;;;9.96;62.60
42603;BME280;28233;55.748;48.752;2023-04-02T07:12:26;99519.03;;;10.02;63.15
42603;BME280;28233;55.748;48.752;2023-04-02T07:14:28;99527.16;;;10.16;63.15
42603;BME280;28233;55.748;48.752;2023-04-02T07:16:32;99533.16;;;10.27;62.95
42603;BME280;28233;55.748;48.752;2023-04-02T07:18:37;99535.63;;;10.37;62.13
42603;BME280;28233;55.748;48.752;2023-04-02T07:20:40;99535.81;;;10.41;61.00
42603;BME280;28233;55.748;48.752;2023-04-02T07:22:43;99532.41;;;10.44;59.79
42603;BME280;28233;55.748;48.752;2023-04-02T07:24:45;99530.97;;;10.46;60.34
42603;BME280;28233;55.748;48.752;2023-04-02T07:26:48;99524.34;;;10.47;60.72
42603;BME280;28233;55.748;48.752;2023-04-02T07:28:51;99530.00;;;10.60;59.94
42603;BME280;28233;55.748;48.752;2023-04-02T07:30:54;99534.53;;;10.64;59.55
42603;BME280;28233;55.748;48.752;2023-04-02T07:32:57;99534.56;;;10.73;59.67
42603;BME280;28233;55.748;48.752;2023-04-02T07:35:00;99527.63;;;10.84;58.59
42603;BME280;28233;55.748;48.752;2023-04-02T07:37:04;99528.56;;;10.88;58.07
42603;BME280;28233;55.748;48.752;2023-04-02T07:39:07;99530.69;;;10.91;58.49
42603;BME280;28233;55.748;48.752;2023-04-02T07:41:10;99534.38;;;10.95;58.52
42603;BME280;28233;55.748;48.752;2023-04-02T07:43:13;99528.09;;;11.04;58.00
42603;BME280;28233;55.748;48.752;2023-04-02T07:45:15;99525.00;;;11.14;58.02
42603;BME280;28233;55.748;48.752;2023-04-02T07:47:18;99530.81;;;11.30;58.07
42603;BME280;28233;55.748;48.752;2023-04-02T07:49:21;99526.09;;;11.39;56.85
42603;BME280;28233;55.748;48.752;2023-04-02T07:51:25;99539.19;;;11.51;56.69
42603;BME280;28233;55.748;48.752;2023-04-02T07:53:32;99533.00;;;11.62;56.58
42603;BME280;28233;55.748;48.752;2023-04-02T07:55:36;99535.75;;;11.71;56.21
42603;BME280;28233;55.748;48.752;2023-04-02T07:57:45;99535.38;;;11.81;56.08
42603;BME280;28233;55.748;48.752;2023-04-02T07:59:50;99529.69;;;11.87;54.95
42603;BME280;28233;55.748;48.752;2023-04-02T08:01:52;99531.28;;;11.96;55.17
42603;BME280;28233;55.748;48.752;2023-04-02T08:03:56;99524.13;;;12.04;54.74
42603;BME280;28233;55.748;48.752;2023-04-02T08:05:59;99530.25;;;12.10;54.03
42603;BME280;28233;55.748;48.752;2023-04-02T08:08:01;99527.19;;;12.11;53.36
42603;BME280;28233;55.748;48.752;2023-04-02T08:10:05;99525.50;;;12.19;54.06
42603;BME280;28233;55.748;48.752;2023-04-02T08:12:11;99531.44;;;12.30;53.84
42603;BME280;28233;55.748;48.752;2023-04-02T08:14:14;99524.81;;;12.31;53.20
42603;BME280;28233;55.748;48.752;2023-04-02T08:16:17;99522.28;;;12.46;53.41
42603;BME280;28233;55.748;48.752;2023-04-02T08:18:23;99527.66;;;12.64;52.89
42603;BME280;28233;55.748;48.752;2023-04-02T08:20:26;99523.56;;;12.70;52.65
42603;BME280;28233;55.748;48.752;2023-04-02T08:22:29;99523.50;;;12.79;52.11
42603;BME280;28233;55.748;48.752;2023-04-02T08:24:32;99516.44;;;12.90;51.31
42603;BME280;28233;55.748;48.752;2023-04-02T08:26:35;99519.22;;;13.02;51.90
42603;BME280;28233;55.748;48.752;2023-04-02T08:28:38;99513.31;;;13.13;50.99
42603;BME280;28233;55.748;48.752;2023-04-02T08:30:41;99521.78;;;13.28;50.04
42603;BME280;28233;55.748;48.752;2023-04-02T08:32:44;99519.34;;;13.48;49.53
42603;BME280;28233;55.748;48.752;2023-04-02T08:34:47;99520.16;;;13.73;49.12
42603;BME280;28233;55.748;48.752;2023-04-02T08:36:50;99517.44;;;13.85;48.78
42603;BME280;28233;55.748;48.752;2023-04-02T08:38:52;99510.09;;;14.02;48.71
42603;BME280;28233;55.748;48.752;2023-04-02T08:40:58;99511.00;;;14.18;47.94
42603;BME280;28233;55.748;48.752;2023-04-02T08:45:54;99504.16;;;14.52;46.67
42603;BME280;28233;55.748;48.752;2023-04-02T08:48:00;99505.91;;;14.57;46.78
42603;BME280;28233;55.748;48.752;2023-04-02T08:52:35;99516.25;;;14.60;46.08
42603;BME280;28233;55.748;48.752;2023-04-02T08:54:38;99505.13;;;14.56;45.83
42603;BME280;28233;55.748;48.752;2023-04-02T08:57:06;99501.56;;;14.56;45.66
42603;BME280;28233;55.748;48.752;2023-04-02T09:01:26;99511.88;;;14.71;45.65
42603;BME280;28233;55.748;48.752;2023-04-02T09:03:43;99504.88;;;14.62;45.21
42603;BME280;28233;55.748;48.752;2023-04-02T09:05:48;99510.06;;;14.63;45.14
42603;BME280;28233;55.748;48.752;2023-04-02T09:07:52;99505.91;;;14.57;44.80
42603;BME280;28233;55.748;48.752;2023-04-02T09:09:58;99513.16;;;14.49;44.27
42603;BME280;28233;55.748;48.752;2023-04-02T09:12:02;99498.63;;;14.52;44.32
42603;BME280;28233;55.748;48.752;2023-04-02T09:14:14;99510.63;;;14.56;43.87
42603;BME280;28233;55.748;48.752;2023-04-02T09:16:19;99501.38;;;14.65;44.30
42603;BME280;28233;55.748;48.752;2023-04-02T09:18:27;99505.44;;;14.55;44.04
42603;BME280;28233;55.748;48.752;2023-04-02T09:20:31;99502.44;;;14.60;44.15
42603;BME280;28233;55.748;48.752;2023-04-02T09:22:34;99510.41;;;14.62;43.97
42603;BME280;28233;55.748;48.752;2023-04-02T09:24:37;99507.63;;;14.62;43.97
42603;BME280;28233;55.748;48.752;2023-04-02T09:26:40;99506.25;;;14.68;44.19
42603;BME280;28233;55.748;48.752;2023-04-02T09:28:42;99505.63;;;14.74;43.85
42603;BME280;28233;55.748;48.752;2023-04-02T09:31:38;99505.41;;;14.79;44.53
42603;BME280;28233;55.748;48.752;2023-04-02T09:38:32;99508.84;;;14.89;44.72
42603;BME280;28233;55.748;48.752;2023-04-02T09:41:19;99507.53;;;14.86;44.31
42603;BME280;28233;55.748;48.752;2023-04-02T09:43:11;99504.75;;;14.70;44.07
42603;BME280;28233;55.748;48.752;2023-04-02T09:45:22;99506.13;;;14.64;45.36
42603;BME280;28233;55.748;48.752;2023-04-02T09:47:25;99510.34;;;14.74;44.79
42603;BME280;28233;55.748;48.752;2023-04-02T09:49:35;99512.00;;;14.75;44.81
42603;BME280;28233;55.748;48.752;2023-04-02T09:51:38;99515.81;;;14.70;44.58
42603;BME280;28233;55.748;48.752;2023-04-02T09:53:46;99508.16;;;14.79;45.03
42603;BME280;28233;55.748;48.752;2023-04-02T09:56:10;99514.78;;;14.91;44.72
42603;BME280;28233;55.748;48.752;2023-04-02T09:58:15;99512.25;;;14.98;44.74
42603;BME280;28233;55.748;48.752;2023-04-02T10:00:23;99513.31;;;14.93;44.05
42603;BME280;28233;55.748;48.752;2023-04-02T10:02:33;99504.38;;;15.00;44.36
42603;BME280;28233;55.748;48.752;2023-04-02T10:04:48;99521.91;;;15.04;44.61
42603;BME280;28233;55.748;48.752;2023-04-02T10:07:04;99516.63;;;14.99;44.19
42603;BME280;28233;55.748;48.752;2023-04-02T10:09:28;99508.97;;;14.80;44.95
42603;BME280;28233;55.748;48.752;2023-04-02T10:11:33;99516.69;;;14.87;44.39
42603;BME280;28233;55.748;48.752;2023-04-02T10:14:20;99520.63;;;14.73;44.15
42603;BME280;28233;55.748;48.752;2023-04-02T10:16:47;99518.78;;;14.77;43.99
42603;BME280;28233;55.748;48.752;2023-04-02T10:18:56;99514.03;;;14.78;44.46
42603;BME280;28233;55.748;48.752;2023-04-02T10:21:02;99522.47;;;14.82;44.37
42603;BME280;28233;55.748;48.752;2023-04-02T10:23:16;99516.56;;;14.83;44.44
42603;BME280;28233;55.748;48.752;2023-04-02T10:25:23;99514.56;;;14.96;44.64
42603;BME280;28233;55.748;48.752;2023-04-02T10:28:25;99518.81;;;15.06;43.83
42603;BME280;28233;55.748;48.752;2023-04-02T10:30:27;99526.84;;;15.11;43.40
42603;BME280;28233;55.748;48.752;2023-04-02T10:32:41;99520.00;;;15.20;44.04
42603;BME280;28233;55.748;48.752;2023-04-02T10:39:42;99514.88;;;15.07;42.75
42603;BME280;28233;55.748;48.752;2023-04-02T10:41:58;99520.78;;;15.05;42.63
42603;BME280;28233;55.748;48.752;2023-04-02T10:49:49;99511.63;;;14.76;43.83
42603;BME280;28233;55.748;48.752;2023-04-02T10:56:30;99509.94;;;14.59;43.59
42603;BME280;28233;55.748;48.752;2023-04-02T10:59:14;99506.34;;;14.71;43.35
42603;BME280;28233;55.748;48.752;2023-04-02T11:01:23;99511.88;;;14.71;43.45
42603;BME280;28233;55.748;48.752;2023-04-02T11:03:44;99510.97;;;14.55;42.82
42603;BME280;28233;55.748;48.752;2023-04-02T11:05:50;99513.50;;;14.48;45.28
42603;BME280;28233;55.748;48.752;2023-04-02T11:07:57;99512.59;;;14.56;43.29
42603;BME280;28233;55.748;48.752;2023-04-02T11:10:02;99510.97;;;14.55;43.14
42603;BME280;28233;55.748;48.752;2023-04-02T11:12:06;99511.66;;;14.52;43.15
42603;BME280;28233;55.748;48.752;2023-04-02T11:14:26;99511.91;;;14.59;43.11
42603;BME280;28233;55.748;48.752;2023-04-02T11:16:29;99512.81;;;14.63;43.61
42603;BME280;28233;55.748;48.752;2023-04-02T11:18:33;99512.88;;;14.79;43.63
42603;BME280;28233;55.748;48.752;2023-04-02T11:20:55;99505.03;;;14.93;42.60
42603;BME280;28233;55.748;48.752;2023-04-02T11:23:25;99513.59;;;15.04;42.97
42603;BME280;28233;55.748;48.752;2023-04-02T11:25:29;99510.13;;;15.07;42.79
42603;BME280;28233;55.748;48.752;2023-04-02T11:27:32;99510.69;;;15.13;42.74
42603;BME280;28233;55.748;48.752;2023-04-02T11:38:51;99509.66;;;15.17;42.03
42603;BME280;28233;55.748;48.752;2023-04-02T11:40:58;99506.75;;;15.14;42.75
42603;BME280;28233;55.748;48.752;2023-04-02T11:50:04;99502.28;;;15.09;41.81
42603;BME280;28233;55.748;48.752;2023-04-02T11:52:20;99508.28;;;15.11;40.86
42603;BME280;28233;55.748;48.752;2023-04-02T11:54:27;99510.56;;;15.21;41.72
42603;BME280;28233;55.748;48.752;2023-04-02T11:59:05;99515.91;;;15.30;40.90
42603;BME280;28233;55.748;48.752;2023-04-02T12:11:07;99511.94;;;15.15;40.43
42603;BME280;28233;55.748;48.752;2023-04-02T12:13:20;99504.00;;;15.14;39.49
42603;BME280;28233;55.748;48.752;2023-04-02T12:15:44;99496.94;;;15.16;40.52
42603;BME280;28233;55.748;48.752;2023-04-02T12:17:47;99497.59;;;15.26;40.38
42603;BME280;28233;55.748;48.752;2023-04-02T12:19:58;99496.91;;;15.29;39.86
42603;BME280;28233;55.748;48.752;2023-04-02T12:22:05;99505.56;;;15.27;39.96
42603;BME280;28233;55.748;48.752;2023-04-02T12:24:20;99495.94;;;15.37;39.76
42603;BME280;28233;55.748;48.752;2023-04-02T12:26:31;99496.38;;;15.39;39.35
42603;BME280;28233;55.748;48.752;2023-04-02T12:28:38;99487.28;;;15.38;39.97
42603;BME280;28233;55.748;48.752;2023-04-02T12:30:45;99492.81;;;15.54;39.91
42603;BME280;28233;55.748;48.752;2023-04-02T12:32:49;99492.75;;;15.67;40.93
42603;BME280;28233;55.748;48.752;2023-04-02T12:34:53;99489.28;;;15.70;40.08
42603;BME280;28233;55.748;48.752;2023-04-02T12:37:03;99488.94;;;15.71;39.57
42603;BME280;28233;55.748;48.752;2023-04-02T12:39:15;99481.78;;;15.70;39.35
42603;BME280;28233;55.748;48.752;2023-04-02T12:41:29;99487.66;;;15.69;38.42
42603;BME280;28233;55.748;48.752;2023-04-02T12:43:34;99489.75;;;15.72;39.22
42603;BME280;28233;55.748;48.752;2023-04-02T12:45:38;99481.78;;;15.70;39.07
42603;BME280;28233;55.748;48.752;2023-04-02T12:47:43;99482.81;;;15.65;39.56
42603;BME280;28233;55.748;48.752;2023-04-02T12:49:47;99483.44;;;15.59;39.67
42603;BME280;28233;55.748;48.752;2023-04-02T12:51:50;99484.97;;;15.56;39.93
42603;BME280;28233;55.748;48.752;2023-04-02T12:53:54;99477.91;;;15.59;40.10
42603;BME280;28233;55.748;48.752;2023-04-02T12:55:58;99475.59;;;15.61;40.03
42603;BME280;28233;55.748;48.752;2023-04-02T12:58:01;99482.25;;;15.72;41.16
42603;BME280;28233;55.748;48.752;2023-04-02T13:02:27;99483.13;;;15.76;40.12
42603;BME280;28233;55.748;48.752;2023-04-02T13:04:31;99478.31;;;15.73;40.16
42603;BME280;28233;55.748;48.752;2023-04-02T13:06:34;99484.72;;;15.77;40.25
42603;BME280;28233;55.748;48.752;2023-04-02T13:08:41;99479.19;;;15.77;40.51
42603;BME280;28233;55.748;48.752;2023-04-02T13:10:44;99473.31;;;15.79;40.16
42603;BME280;28233;55.748;48.752;2023-04-02T13:12:47;99479.75;;;15.83;40.21
42603;BME280;28233;55.748;48.752;2023-04-02T13:14:56;99476.53;;;15.81;40.03
42603;BME280;28233;55.748;48.752;2023-04-02T13:17:00;99473.94;;;15.88;40.16
42603;BME280;28233;55.748;48.752;2023-04-02T13:19:32;99471.22;;;16.08;39.41
42603;BME280;28233;55.748;48.752;2023-04-02T13:21:35;99472.56;;;16.14;39.09